createdAt,value
2023-07-08T00:01:35.197Z,16.02
2023-07-08T00:04:02.034Z,12.00
2023-07-08T00:06:28.696Z,11.70
2023-07-08T00:08:55.178Z,10.27
2023-07-08T00:11:21.604Z,10.77
2023-07-08T00:13:49.477Z,11.70
2023-07-08T00:16:17.370Z,14.68
2023-07-08T00:18:44.989Z,12.98
2023-07-08T00:21:11.883Z,13.10
2023-07-08T00:23:38.259Z,12.02
2023-07-08T00:26:09.772Z,10.75
2023-07-08T00:28:36.156Z,12.57
2023-07-08T00:31:05.706Z,16.13
2023-07-08T00:33:32.125Z,14.68
2023-07-08T00:35:58.519Z,12.82
2023-07-08T00:38:25.899Z,11.02
2023-07-08T00:40:52.976Z,11.30
2023-07-08T00:43:22.086Z,11.20
2023-07-08T00:46:01.477Z,9.23
2023-07-08T00:48:34.737Z,16.33
2023-07-08T00:51:01.420Z,13.00
2023-07-08T00:53:28.951Z,14.23
2023-07-08T00:55:56.377Z,12.88
2023-07-08T00:58:23.802Z,14.10
2023-07-08T01:00:50.579Z,15.77
2023-07-08T01:03:17.426Z,14.68
2023-07-08T01:05:46.438Z,14.05
2023-07-08T01:08:13.099Z,12.15
2023-07-08T01:10:40.550Z,10.52
2023-07-08T01:13:08.575Z,17.00
2023-07-08T01:15:37.926Z,13.35
2023-07-08T01:20:30.912Z,17.52
2023-07-08T01:22:58.800Z,12.75
2023-07-08T01:25:25.278Z,17.90
2023-07-08T01:27:54.388Z,13.82
2023-07-08T01:30:21.054Z,9.95
2023-07-08T01:32:49.634Z,10.73
2023-07-08T01:35:16.336Z,13.82
2023-07-08T01:37:43.860Z,10.90
2023-07-08T01:40:23.543Z,10.95
2023-07-08T01:42:50.007Z,15.32
2023-07-08T01:45:18.324Z,11.93
2023-07-08T01:47:47.444Z,12.20
2023-07-08T01:50:14.409Z,10.55
2023-07-08T01:52:40.946Z,14.90
2023-07-08T01:55:07.680Z,10.68
2023-07-08T01:57:35.444Z,9.98
2023-07-08T02:00:01.888Z,12.52
2023-07-08T02:02:28.282Z,12.20
2023-07-08T02:04:56.721Z,11.18
2023-07-08T02:07:23.257Z,8.68
2023-07-08T02:09:49.675Z,12.13
2023-07-08T02:12:16.144Z,13.35
2023-07-08T02:14:44.000Z,13.82
2023-07-08T02:17:10.382Z,10.90
2023-07-08T02:19:36.815Z,12.10
2023-07-08T02:22:03.272Z,9.68
2023-07-08T02:24:29.721Z,15.10
2023-07-08T02:26:56.160Z,16.88
2023-07-08T02:29:22.629Z,13.93
2023-07-08T02:31:50.535Z,15.05
2023-07-08T02:34:17.012Z,10.13
2023-07-08T02:36:43.431Z,13.93
2023-07-08T02:39:09.864Z,13.75
2023-07-08T02:41:36.300Z,11.23
2023-07-08T02:44:02.755Z,14.85
2023-07-08T02:46:29.407Z,13.30
2023-07-08T02:48:57.319Z,14.55
2023-07-08T02:51:23.856Z,13.80
2023-07-08T02:53:50.349Z,10.93
2023-07-08T02:56:16.774Z,15.88
2023-07-08T02:58:43.213Z,14.88
2023-07-08T03:01:11.023Z,10.50
2023-07-08T03:03:37.449Z,10.50
2023-07-08T03:06:05.393Z,13.55
2023-07-08T03:08:31.895Z,13.02
2023-07-08T03:10:59.808Z,10.60
2023-07-08T03:13:26.569Z,9.45
2023-07-08T03:15:53.264Z,13.02
2023-07-08T03:18:19.737Z,9.68
2023-07-08T03:20:48.293Z,12.90
2023-07-08T03:23:16.161Z,12.20
2023-07-08T03:25:42.575Z,14.98
2023-07-08T03:28:08.995Z,13.98
2023-07-08T03:30:35.421Z,8.32
2023-07-08T03:33:01.868Z,12.43
2023-07-08T03:35:28.377Z,8.10
2023-07-08T03:37:55.051Z,13.73
2023-07-08T03:40:22.916Z,14.65
2023-07-08T03:42:49.305Z,16.02
2023-07-08T03:45:15.719Z,10.63
2023-07-08T03:47:42.202Z,13.32
2023-07-08T03:50:14.322Z,11.98
2023-07-08T03:52:40.830Z,13.27
2023-07-08T03:55:07.900Z,11.05
2023-07-08T03:57:35.708Z,12.73
2023-07-08T04:00:02.110Z,17.90
2023-07-08T04:02:28.558Z,14.68
2023-07-08T04:04:54.995Z,19.70
2023-07-08T04:07:21.401Z,11.35
2023-07-08T04:09:47.834Z,13.02
2023-07-08T04:12:14.656Z,12.45
2023-07-08T04:14:42.544Z,12.90
2023-07-08T04:17:09.133Z,14.43
2023-07-08T04:19:35.576Z,8.75
2023-07-08T04:22:03.546Z,17.23
2023-07-08T04:24:29.931Z,10.40
2023-07-08T04:26:56.371Z,13.77
2023-07-08T04:29:23.528Z,11.90
2023-07-08T04:31:51.350Z,16.13
2023-07-08T04:34:17.761Z,12.55
2023-07-08T04:36:44.652Z,11.30
2023-07-08T04:39:11.322Z,12.68
2023-07-08T04:41:37.875Z,9.50
2023-07-08T04:44:04.426Z,14.10
2023-07-08T04:46:33.369Z,10.57
2023-07-08T04:49:02.454Z,12.52
2023-07-08T04:51:28.949Z,12.00
2023-07-08T04:53:55.433Z,19.48
2023-07-08T04:56:21.853Z,12.15
2023-07-08T04:58:48.250Z,10.25
2023-07-08T05:01:14.671Z,17.70
2023-07-08T05:03:41.099Z,11.55
2023-07-08T05:06:08.942Z,9.93
2023-07-08T05:08:35.378Z,10.43
2023-07-08T05:11:02.096Z,11.43
2023-07-08T05:13:28.814Z,10.80
2023-07-08T05:15:55.274Z,14.52
2023-07-08T05:18:21.708Z,10.75
2023-07-08T05:20:51.289Z,12.63
2023-07-08T05:23:19.148Z,10.77
2023-07-08T05:25:45.561Z,10.98
2023-07-08T05:28:11.977Z,12.13
2023-07-08T05:30:40.765Z,13.55
2023-07-08T05:33:07.224Z,9.90
2023-07-08T05:35:33.895Z,9.38
2023-07-08T05:38:00.353Z,10.82
2023-07-08T05:40:28.320Z,12.52
2023-07-08T05:42:54.759Z,11.35
2023-07-08T05:45:21.176Z,11.85
2023-07-08T05:47:47.753Z,17.05
2023-07-08T05:50:14.163Z,12.15
2023-07-08T05:52:40.661Z,11.20
2023-07-08T05:55:07.403Z,18.27
2023-07-08T05:57:35.214Z,15.50
2023-07-08T06:00:01.660Z,12.95
2023-07-08T06:02:28.226Z,14.52
2023-07-08T06:04:55.418Z,14.13
2023-07-08T06:07:22.644Z,17.10
2023-07-08T06:09:49.162Z,12.52
2023-07-08T06:12:16.283Z,22.50
2023-07-08T06:14:44.803Z,13.52
2023-07-08T06:17:12.128Z,15.15
2023-07-08T06:19:38.747Z,15.30
2023-07-08T06:22:33.396Z,17.98
2023-07-08T06:24:51.836Z,13.63
2023-07-08T06:27:18.282Z,17.15
2023-07-08T06:29:46.124Z,13.10
2023-07-08T06:32:12.531Z,14.98
2023-07-08T06:34:39.105Z,12.77
2023-07-08T06:37:05.905Z,15.30
2023-07-08T06:39:32.957Z,20.58
2023-07-08T06:41:59.418Z,15.63
2023-07-08T06:44:25.855Z,18.05
2023-07-08T06:46:56.159Z,15.55
2023-07-08T06:49:22.661Z,14.57
2023-07-08T06:51:49.093Z,12.40
2023-07-08T06:54:15.546Z,9.98
2023-07-08T06:56:42.365Z,12.80
2023-07-08T06:59:12.104Z,12.70
2023-07-08T07:01:39.268Z,11.07
2023-07-08T07:04:07.820Z,10.77
2023-07-08T07:06:34.452Z,15.93
2023-07-08T07:09:00.949Z,26.23
2023-07-08T07:11:27.614Z,14.65
2023-07-08T07:13:54.357Z,18.60
2023-07-08T07:16:23.143Z,15.23
2023-07-08T07:18:51.142Z,13.23
2023-07-08T07:21:21.915Z,15.27
2023-07-08T07:23:50.763Z,14.73
2023-07-08T07:26:24.531Z,16.30
2023-07-08T07:28:51.226Z,13.23
2023-07-08T07:31:17.709Z,16.52
2023-07-08T07:33:44.189Z,14.82
2023-07-08T07:36:10.585Z,12.23
2023-07-08T07:38:38.501Z,16.30
2023-07-08T07:41:04.919Z,15.38
2023-07-08T07:43:31.346Z,17.23
2023-07-08T07:45:58.111Z,13.93
2023-07-08T07:48:24.909Z,16.95
2023-07-08T07:50:51.605Z,14.68
2023-07-08T07:53:18.691Z,13.10
2023-07-08T07:55:46.478Z,24.27
2023-07-08T07:58:12.889Z,14.25
2023-07-08T08:00:39.362Z,20.38
2023-07-08T08:03:06.495Z,15.88
2023-07-08T08:05:32.995Z,11.30
2023-07-08T08:07:59.434Z,15.75
2023-07-08T08:10:25.876Z,14.50
2023-07-08T08:12:54.317Z,19.98
2023-07-08T08:15:21.595Z,15.73
2023-07-08T08:17:48.083Z,11.80
2023-07-08T08:20:14.630Z,13.35
2023-07-08T08:22:41.124Z,16.48
2023-07-08T08:25:08.028Z,18.50
2023-07-08T08:27:34.568Z,9.93
2023-07-08T08:30:02.362Z,12.57
2023-07-08T08:32:28.803Z,22.13
2023-07-08T08:34:55.274Z,13.85
2023-07-08T08:37:21.644Z,15.70
2023-07-08T08:39:48.057Z,15.00
2023-07-08T08:42:18.231Z,23.58
2023-07-08T08:44:44.661Z,11.07
2023-07-08T08:47:21.095Z,11.85
2023-07-08T08:49:51.839Z,21.17
2023-07-08T08:52:18.258Z,13.38
2023-07-08T08:54:44.733Z,14.18
2023-07-08T08:57:16.075Z,12.27
2023-07-08T08:59:44.504Z,16.33
2023-07-08T09:02:24.312Z,9.97
2023-07-08T09:04:50.852Z,9.52
2023-07-08T09:07:18.836Z,11.25
2023-07-08T09:09:48.451Z,8.73
2023-07-08T09:12:19.352Z,10.82
2023-07-08T09:14:46.416Z,11.68
2023-07-08T09:17:24.457Z,9.32
2023-07-08T09:19:53.423Z,10.52
2023-07-08T09:22:22.490Z,9.40
2023-07-08T09:24:50.561Z,10.75
2023-07-08T09:27:17.125Z,9.00
2023-07-08T09:29:43.987Z,13.90
2023-07-08T09:32:16.806Z,12.13
2023-07-08T09:34:45.021Z,12.38
2023-07-08T09:37:22.655Z,15.30
2023-07-08T09:39:49.131Z,7.85
2023-07-08T09:42:16.250Z,12.55
2023-07-08T09:44:45.265Z,11.15
2023-07-08T09:47:21.393Z,13.05
2023-07-08T09:49:48.277Z,13.60
2023-07-08T09:52:14.672Z,10.00
2023-07-08T09:54:42.166Z,10.70
2023-07-08T09:57:12.137Z,10.43
2023-07-08T09:59:39.797Z,11.57
2023-07-08T10:02:22.690Z,9.80
2023-07-08T10:04:55.108Z,9.40
2023-07-08T10:07:21.531Z,11.70
2023-07-08T10:09:48.463Z,12.38
2023-07-08T10:12:15.174Z,10.25
2023-07-08T10:14:45.986Z,6.60
2023-07-08T10:17:14.516Z,10.95
2023-07-08T10:19:43.764Z,6.78
2023-07-08T10:22:17.860Z,10.15
2023-07-08T10:24:51.458Z,11.20
2023-07-08T10:27:22.871Z,11.25
2023-07-08T10:29:53.628Z,11.50
2023-07-08T10:32:25.577Z,12.00
2023-07-08T10:34:56.788Z,17.42
2023-07-08T10:37:29.318Z,7.82
2023-07-08T10:40:00.447Z,10.00
2023-07-08T10:42:37.452Z,7.93
2023-07-08T10:45:10.781Z,10.40
2023-07-08T10:47:42.740Z,7.70
2023-07-08T10:50:17.963Z,11.23
2023-07-08T10:52:52.056Z,8.05
2023-07-08T10:55:29.078Z,10.63
2023-07-08T10:58:07.257Z,7.30
2023-07-08T11:00:37.603Z,12.00
2023-07-08T11:03:11.465Z,8.32
2023-07-08T11:05:42.486Z,7.00
2023-07-08T11:08:13.928Z,6.10
2023-07-08T11:10:44.096Z,8.98
2023-07-08T11:13:12.772Z,8.57
2023-07-08T11:15:43.844Z,6.43
2023-07-08T11:18:12.831Z,14.60
2023-07-08T11:20:41.023Z,8.02
2023-07-08T11:23:11.246Z,7.23
2023-07-08T11:25:40.137Z,5.80
2023-07-08T11:28:13.331Z,5.13
2023-07-08T11:30:39.761Z,7.05
2023-07-08T11:33:10.199Z,9.52
2023-07-08T11:35:38.809Z,5.80
2023-07-08T11:38:05.663Z,6.47
2023-07-08T11:40:33.006Z,6.03
2023-07-08T11:43:03.533Z,8.95
2023-07-08T11:45:32.257Z,6.88
2023-07-08T11:48:05.382Z,5.95
2023-07-08T11:50:32.863Z,10.00
2023-07-08T11:53:00.220Z,7.00
2023-07-08T11:55:30.476Z,11.30
2023-07-08T11:57:57.448Z,9.77
2023-07-08T12:00:26.596Z,8.13
2023-07-08T12:02:55.054Z,10.18
2023-07-08T12:05:31.988Z,5.38
2023-07-08T12:07:58.437Z,7.10
2023-07-08T12:10:27.348Z,8.40
2023-07-08T12:12:53.784Z,4.57
2023-07-08T12:15:22.701Z,5.47
2023-07-08T12:17:51.328Z,5.38
2023-07-08T12:20:20.618Z,7.55
2023-07-08T12:22:47.725Z,6.60
2023-07-08T12:25:14.748Z,9.57
2023-07-08T12:27:41.190Z,9.82
2023-07-08T12:30:10.995Z,8.20
2023-07-08T12:32:38.475Z,20.55
2023-07-08T12:35:15.260Z,10.57
2023-07-08T12:37:41.703Z,6.80
2023-07-08T12:40:11.080Z,6.22
2023-07-08T12:42:37.537Z,5.05
2023-07-08T12:45:12.956Z,7.32
2023-07-08T12:47:39.402Z,7.65
2023-07-08T12:50:09.243Z,5.30
2023-07-08T12:52:35.638Z,5.20
2023-07-08T12:55:02.083Z,11.85
2023-07-08T12:57:28.598Z,5.53
2023-07-08T12:59:55.192Z,8.55
2023-07-08T13:02:22.842Z,16.30
2023-07-08T13:04:50.841Z,8.88
2023-07-08T13:07:25.567Z,5.97
2023-07-08T13:09:52.357Z,14.50
2023-07-08T13:12:21.062Z,10.55
2023-07-08T13:14:47.601Z,12.32
2023-07-08T13:17:15.052Z,7.30
2023-07-08T13:19:42.243Z,7.32
2023-07-08T13:22:11.649Z,5.18
2023-07-08T13:24:39.466Z,4.75
2023-07-08T13:27:08.482Z,6.55
2023-07-08T13:32:06.379Z,4.70
2023-07-08T13:34:33.392Z,5.05
2023-07-08T13:36:59.882Z,6.70
2023-07-08T13:39:28.090Z,10.05
2023-07-08T13:41:56.129Z,5.00
2023-07-08T13:44:22.727Z,5.23
2023-07-08T13:46:52.694Z,5.30
2023-07-08T13:49:22.756Z,5.50
2023-07-08T13:51:49.737Z,8.70
2023-07-08T13:54:20.113Z,6.10
2023-07-08T13:56:47.927Z,5.55
2023-07-08T13:59:19.384Z,9.23
2023-07-08T14:01:45.907Z,6.45
2023-07-08T14:04:14.106Z,4.50
2023-07-08T14:06:40.993Z,4.50
2023-07-08T14:09:11.271Z,5.63
2023-07-08T14:11:37.686Z,4.38
2023-07-08T14:14:04.185Z,7.35
2023-07-08T14:16:33.463Z,13.05
2023-07-08T14:19:01.309Z,6.35
2023-07-08T14:21:27.794Z,4.28
2023-07-08T14:23:54.235Z,7.10
2023-07-08T14:26:20.812Z,7.20
2023-07-08T14:28:47.299Z,6.30
2023-07-08T14:31:22.015Z,4.82
2023-07-08T14:33:50.237Z,6.65
2023-07-08T14:36:16.643Z,4.13
2023-07-08T14:38:43.052Z,11.63
2023-07-08T14:41:10.044Z,6.93
2023-07-08T14:43:36.432Z,6.30
2023-07-08T14:46:04.203Z,6.60
2023-07-08T14:48:32.057Z,4.30
2023-07-08T14:51:00.301Z,6.00
2023-07-08T14:53:27.048Z,4.53
2023-07-08T14:55:55.226Z,5.63
2023-07-08T14:58:22.843Z,6.32
2023-07-08T15:00:49.507Z,7.22
2023-07-08T15:03:16.115Z,4.97
2023-07-08T15:05:42.710Z,5.50
2023-07-08T15:08:10.539Z,6.22
2023-07-08T15:10:37.332Z,5.93
2023-07-08T15:13:04.271Z,4.05
2023-07-08T15:15:31.708Z,4.60
2023-07-08T15:17:58.576Z,5.85
2023-07-08T15:20:25.624Z,7.35
2023-07-08T15:22:52.089Z,6.47
2023-07-08T15:25:19.917Z,5.60
2023-07-08T15:27:48.663Z,4.47
2023-07-08T15:30:18.765Z,4.40
2023-07-08T15:32:45.853Z,8.13
2023-07-08T15:35:13.311Z,14.00
2023-07-08T15:37:39.776Z,8.15
2023-07-08T15:40:07.011Z,4.57
2023-07-08T15:42:34.873Z,9.07
2023-07-08T15:45:01.358Z,7.60
2023-07-08T15:47:27.891Z,5.32
2023-07-08T15:49:54.412Z,3.88
2023-07-08T15:52:20.810Z,5.63
2023-07-08T15:54:47.221Z,5.18
2023-07-08T15:57:15.485Z,4.90
2023-07-08T15:59:43.590Z,5.40
2023-07-08T16:02:25.123Z,5.22
2023-07-08T16:04:53.117Z,6.43
2023-07-08T16:07:19.588Z,4.38
2023-07-08T16:09:45.989Z,11.15
2023-07-08T16:12:13.048Z,6.03
2023-07-08T16:14:39.604Z,5.22
2023-07-08T16:17:10.541Z,11.32
2023-07-08T16:19:37.169Z,7.32
2023-07-08T16:22:03.667Z,3.78
2023-07-08T16:24:30.252Z,6.15
2023-07-08T16:26:56.751Z,5.00
2023-07-08T16:29:25.662Z,4.93
2023-07-08T16:34:19.891Z,8.02
2023-07-08T16:36:46.286Z,7.22
2023-07-08T16:39:12.693Z,4.63
2023-07-08T16:41:39.222Z,8.45
2023-07-08T16:44:12.891Z,14.23
2023-07-08T16:46:39.390Z,5.97
2023-07-08T16:49:05.844Z,7.80
2023-07-08T16:51:33.633Z,6.25
2023-07-08T16:54:02.077Z,8.50
2023-07-08T16:56:28.518Z,4.63
2023-07-08T16:58:55.013Z,9.60
2023-07-08T17:01:22.117Z,7.60
2023-07-08T17:03:49.026Z,5.43
2023-07-08T17:06:15.741Z,6.03
2023-07-08T17:08:43.567Z,5.82
2023-07-08T17:11:10.389Z,6.03
2023-07-08T17:13:36.919Z,12.52
2023-07-08T17:16:03.618Z,5.55
2023-07-08T17:18:30.170Z,5.85
2023-07-08T17:21:01.011Z,9.40
2023-07-08T17:23:27.794Z,5.75
2023-07-08T17:25:55.609Z,8.45
2023-07-08T17:28:22.111Z,21.00
2023-07-08T17:30:49.729Z,11.00
2023-07-08T17:33:16.926Z,8.52
2023-07-08T17:35:43.742Z,10.50
2023-07-08T17:38:10.963Z,7.35
2023-07-08T17:40:37.380Z,8.27
2023-07-08T17:43:05.203Z,6.32
2023-07-08T17:45:34.170Z,10.43
2023-07-08T17:50:28.724Z,9.35
2023-07-08T17:52:56.010Z,9.77
2023-07-08T17:55:23.764Z,7.70
2023-07-08T17:57:51.308Z,9.32
2023-07-08T18:00:20.309Z,17.83
2023-07-08T18:05:14.474Z,7.28
2023-07-08T18:07:41.784Z,11.43
2023-07-08T18:10:10.599Z,14.10
2023-07-08T18:12:37.267Z,15.77
2023-07-08T18:15:03.901Z,10.65
2023-07-08T18:17:31.800Z,16.17
2023-07-08T18:19:58.213Z,9.73
2023-07-08T18:22:24.625Z,9.75
2023-07-08T18:24:51.055Z,13.15
2023-07-08T18:27:17.468Z,11.35
2023-07-08T18:29:43.900Z,18.00
2023-07-08T18:32:10.590Z,13.70
2023-07-08T18:34:38.551Z,8.20
2023-07-08T18:37:04.998Z,9.02
2023-07-08T18:39:31.406Z,11.48
2023-07-08T18:41:57.861Z,7.57
2023-07-08T18:44:27.201Z,7.85
2023-07-08T18:46:53.660Z,12.88
2023-07-08T18:49:20.120Z,11.25
2023-07-08T18:51:47.915Z,11.57
2023-07-08T18:54:15.131Z,12.63
2023-07-08T18:56:41.628Z,16.05
2023-07-08T18:59:08.111Z,16.10
2023-07-08T19:01:35.796Z,16.05
2023-07-08T19:04:02.381Z,18.75
2023-07-08T19:06:28.789Z,20.42
2023-07-08T19:08:56.548Z,24.73
2023-07-08T19:11:24.401Z,16.42
2023-07-08T19:13:51.281Z,18.65
2023-07-08T19:16:18.159Z,14.85
2023-07-08T19:18:44.934Z,17.60
2023-07-08T19:21:12.758Z,16.05
2023-07-08T19:23:41.238Z,19.50
2023-07-08T19:26:10.517Z,27.10
2023-07-08T19:28:36.971Z,24.27
2023-07-08T19:31:03.538Z,29.33
2023-07-08T19:33:30.644Z,22.73
2023-07-08T19:35:57.391Z,20.65
2023-07-08T19:38:24.503Z,18.60
2023-07-08T19:40:51.892Z,25.67
2023-07-08T19:43:20.176Z,18.63
2023-07-08T19:45:46.849Z,23.02
2023-07-08T19:48:13.289Z,21.55
2023-07-08T19:50:40.345Z,18.98
2023-07-08T19:53:07.238Z,13.77
2023-07-08T19:55:34.833Z,16.42
2023-07-08T19:58:01.558Z,18.40
2023-07-08T20:00:30.329Z,15.77
2023-07-08T20:02:57.526Z,19.58
2023-07-08T20:05:26.389Z,11.52
2023-07-08T20:07:54.880Z,20.40
2023-07-08T20:10:21.333Z,15.57
2023-07-08T20:12:47.740Z,18.25
2023-07-08T20:15:14.435Z,14.82
2023-07-08T20:17:42.296Z,22.73
2023-07-08T20:20:18.666Z,16.83
2023-07-08T20:22:45.207Z,14.68
2023-07-08T20:25:12.709Z,22.45
2023-07-08T20:27:39.278Z,20.35
2023-07-08T20:30:10.995Z,16.17
2023-07-08T20:32:37.429Z,16.10
2023-07-08T20:35:05.667Z,12.80
2023-07-08T20:37:32.131Z,14.73
2023-07-08T20:39:58.548Z,12.25
2023-07-08T20:42:24.937Z,18.80
2023-07-08T20:44:51.350Z,13.90
2023-07-08T20:47:17.840Z,15.05
2023-07-08T20:49:44.234Z,17.00
2023-07-08T20:52:12.899Z,15.38
2023-07-08T20:54:39.314Z,18.02
2023-07-08T20:57:09.654Z,17.98
2023-07-08T20:59:36.146Z,14.95
2023-07-08T21:02:11.320Z,14.15
2023-07-08T21:04:37.730Z,20.73
2023-07-08T21:07:04.463Z,15.20
2023-07-08T21:09:32.217Z,12.80
2023-07-08T21:11:58.705Z,12.90
2023-07-08T21:14:25.116Z,15.07
2023-07-08T21:16:52.000Z,14.88
2023-07-08T21:19:18.427Z,12.95
2023-07-08T21:21:44.853Z,11.05
2023-07-08T21:24:13.110Z,9.45
2023-07-08T21:26:41.876Z,17.10
2023-07-08T21:29:08.777Z,13.70
2023-07-08T21:31:35.262Z,22.08
2023-07-08T21:34:01.810Z,19.52
2023-07-08T21:36:29.434Z,19.67
2023-07-08T21:38:58.339Z,16.98
2023-07-08T21:41:24.816Z,15.85
2023-07-08T21:43:52.606Z,23.52
2023-07-08T21:46:19.070Z,21.42
2023-07-08T21:48:45.564Z,33.25
2023-07-08T21:51:16.012Z,20.13
2023-07-08T21:53:44.100Z,20.23
2023-07-08T21:56:10.520Z,15.70
2023-07-08T21:58:36.971Z,16.67
2023-07-08T22:01:05.019Z,20.42
2023-07-08T22:03:31.529Z,21.02
2023-07-08T22:05:58.238Z,29.58
2023-07-08T22:08:25.366Z,19.58
2023-07-08T22:10:53.428Z,19.63
2023-07-08T22:13:25.293Z,24.70
2023-07-08T22:15:51.865Z,20.00
2023-07-08T22:18:19.705Z,16.33
2023-07-08T22:20:46.195Z,21.98
2023-07-08T22:23:12.581Z,18.20
2023-07-08T22:25:38.988Z,19.13
2023-07-08T22:28:05.406Z,23.10
2023-07-08T22:30:31.784Z,19.55
2023-07-08T22:32:58.203Z,19.50
2023-07-08T22:35:26.255Z,18.10
2023-07-08T22:37:52.633Z,17.40
2023-07-08T22:40:19.143Z,19.35
2023-07-08T22:42:45.584Z,20.73
2023-07-08T22:45:12.714Z,18.85
2023-07-08T22:47:39.148Z,16.08
2023-07-08T22:50:06.103Z,15.98
2023-07-08T22:52:35.157Z,18.10
2023-07-08T22:55:02.657Z,14.18
2023-07-08T22:57:29.093Z,18.65
2023-07-08T22:59:55.510Z,15.13
2023-07-08T23:02:22.060Z,17.38
2023-07-08T23:04:48.588Z,27.25
2023-07-08T23:07:16.860Z,20.85
2023-07-08T23:09:44.621Z,17.60
2023-07-08T23:12:11.128Z,18.60
2023-07-08T23:14:37.586Z,17.63
2023-07-08T23:17:08.326Z,35.47
2023-07-08T23:19:34.789Z,28.73
2023-07-08T23:22:01.180Z,42.22
2023-07-08T23:24:27.616Z,36.03
2023-07-08T23:26:55.589Z,27.77
2023-07-08T23:29:23.238Z,41.63
2023-07-08T23:31:49.938Z,33.17
2023-07-08T23:34:16.674Z,23.17
2023-07-08T23:36:44.563Z,26.27
2023-07-08T23:39:12.884Z,31.10
2023-07-08T23:41:39.381Z,32.17
2023-07-08T23:44:08.283Z,29.30
2023-07-08T23:46:34.847Z,31.63
2023-07-08T23:49:02.304Z,32.60
2023-07-08T23:51:28.753Z,31.73
2023-07-08T23:53:55.357Z,27.92
2023-07-08T23:56:24.901Z,23.42
2023-07-08T23:58:51.358Z,19.20
